Etusivu
METAR-TAF:

METAR-TAF

Lentoasemat :

Mitiga International Airport

Tripoli, Libya

Leveyspiiri: 32-54N, Pituuspiiri: 13-17E, korkeus merenpinnasta: 11 m

METAR: puuttuu

Aika: 04:56 (02:56 UTC)

Sääennuste

Tämä raportti tehtiin 3 tuntia ja 56 minuuttia sitten, kello 23.00 UTC
Ennuste voimassa 20. päivästä klo 00 UTC - 20. päivään klo 24 UTC
Tuuli 10 kn luoteesta
Näkyvyys: 8000 m
Muutamia pilviä 2500 ft:n korkeudessa
Tulossa
20. päivästä klo 04 UTC - 20. päivään klo 06 UTC
Tuuli 2 kn eri suunnista
Tulossa
20. päivästä klo 16 UTC - 20. päivään klo 18 UTC
Tuuli 8 kn idästä/koillisesta

TAF: HLLM 192300Z 2000/2024 32010KT 8000 FEW025 BECMG 2004/2006 VRB02KT BECMG 2016/2018 07008KT

Säähavainnot ja -ennusteet yli 4000 lentoasemalta (METAR- ja TAF-raportit).

Käytössä olevat sääasemat on merkitty karttaan keltaisilla ja punaisilla pisteillä.

Aseta hiiri pisteen päälle nähdäksesi sääaseman nimen.

Klikkaa sitten nähdäksesi säähavainnot ja -ennusteet.

Kartan vaihtaminen: klikkaa mustalla rastilla varustettuja vihreitä pisteitä, niin voit zoomata sisään; viivalla varustettua vihreää pistettä, niin voit zoomata ulos tai vihreitä nuolia, niin pääset viereisille kartoille.


METAR-TAF: